sensor_id;sensor_type;location;lat;lon;timestamp;temperature;humidity
43099;DHT22;28715;51.988;6.020;2023-08-31T00:00:41;14.60;97.60
43099;DHT22;28715;51.988;6.020;2023-08-31T00:03:07;14.60;97.70
43099;DHT22;28715;51.988;6.020;2023-08-31T00:05:36;14.60;97.70
43099;DHT22;28715;51.988;6.020;2023-08-31T00:08:02;14.60;97.80
43099;DHT22;28715;51.988;6.020;2023-08-31T00:10:27;14.60;97.90
43099;DHT22;28715;51.988;6.020;2023-08-31T00:12:55;14.60;97.90
43099;DHT22;28715;51.988;6.020;2023-08-31T00:15:20;14.60;98.00
43099;DHT22;28715;51.988;6.020;2023-08-31T00:17:46;14.60;98.00
43099;DHT22;28715;51.988;6.020;2023-08-31T00:20:11;14.60;98.10
43099;DHT22;28715;51.988;6.020;2023-08-31T00:22:38;14.50;98.10
43099;DHT22;28715;51.988;6.020;2023-08-31T00:25:04;14.60;98.10
43099;DHT22;28715;51.988;6.020;2023-08-31T00:27:31;14.60;98.10
43099;DHT22;28715;51.988;6.020;2023-08-31T00:29:56;14.50;98.10
43099;DHT22;28715;51.988;6.020;2023-08-31T00:32:23;14.50;98.10
43099;DHT22;28715;51.988;6.020;2023-08-31T00:34:49;14.50;98.20
43099;DHT22;28715;51.988;6.020;2023-08-31T00:37:14;14.50;98.30
43099;DHT22;28715;51.988;6.020;2023-08-31T00:39:40;14.40;98.30
43099;DHT22;28715;51.988;6.020;2023-08-31T00:42:05;14.40;98.40
43099;DHT22;28715;51.988;6.020;2023-08-31T00:44:31;14.30;98.50
43099;DHT22;28715;51.988;6.020;2023-08-31T00:46:56;14.30;98.60
43099;DHT22;28715;51.988;6.020;2023-08-31T00:49:22;14.30;98.70
43099;DHT22;28715;51.988;6.020;2023-08-31T00:51:48;14.20;98.80
43099;DHT22;28715;51.988;6.020;2023-08-31T00:54:16;14.20;98.90
43099;DHT22;28715;51.988;6.020;2023-08-31T00:56:42;14.20;98.90
43099;DHT22;28715;51.988;6.020;2023-08-31T00:59:08;14.20;99.00
43099;DHT22;28715;51.988;6.020;2023-08-31T01:01:38;14.20;99.00
43099;DHT22;28715;51.988;6.020;2023-08-31T01:09:09;14.20;99.00
43099;DHT22;28715;51.988;6.020;2023-08-31T01:11:51;14.20;99.00
43099;DHT22;28715;51.988;6.020;2023-08-31T01:14:23;14.20;98.90
43099;DHT22;28715;51.988;6.020;2023-08-31T01:16:49;14.20;98.90
43099;DHT22;28715;51.988;6.020;2023-08-31T01:19:30;14.20;98.90
43099;DHT22;28715;51.988;6.020;2023-08-31T01:21:57;14.20;98.90
43099;DHT22;28715;51.988;6.020;2023-08-31T01:24:25;14.20;98.90
43099;DHT22;28715;51.988;6.020;2023-08-31T01:26:51;14.20;99.00
43099;DHT22;28715;51.988;6.020;2023-08-31T01:29:17;14.20;99.00
43099;DHT22;28715;51.988;6.020;2023-08-31T01:31:43;14.20;99.00
43099;DHT22;28715;51.988;6.020;2023-08-31T01:34:10;14.20;99.00
43099;DHT22;28715;51.988;6.020;2023-08-31T01:36:36;14.20;99.00
43099;DHT22;28715;51.988;6.020;2023-08-31T01:39:09;14.20;99.00
43099;DHT22;28715;51.988;6.020;2023-08-31T01:41:36;14.10;99.00
43099;DHT22;28715;51.988;6.020;2023-08-31T01:44:04;14.10;99.10
43099;DHT22;28715;51.988;6.020;2023-08-31T01:46:30;14.10;99.10
43099;DHT22;28715;51.988;6.020;2023-08-31T01:48:56;14.10;99.10
43099;DHT22;28715;51.988;6.020;2023-08-31T01:51:21;14.00;99.20
43099;DHT22;28715;51.988;6.020;2023-08-31T01:53:48;14.00;99.30
43099;DHT22;28715;51.988;6.020;2023-08-31T01:56:13;14.00;99.30
43099;DHT22;28715;51.988;6.020;2023-08-31T01:58:39;14.10;99.40
43099;DHT22;28715;51.988;6.020;2023-08-31T02:01:04;14.10;99.40
43099;DHT22;28715;51.988;6.020;2023-08-31T02:03:30;14.10;99.50
43099;DHT22;28715;51.988;6.020;2023-08-31T02:05:55;14.10;99.50
43099;DHT22;28715;51.988;6.020;2023-08-31T02:08:21;14.10;99.60
43099;DHT22;28715;51.988;6.020;2023-08-31T02:10:46;14.10;99.70
43099;DHT22;28715;51.988;6.020;2023-08-31T02:13:13;14.10;99.80
43099;DHT22;28715;51.988;6.020;2023-08-31T02:15:39;14.10;99.80
43099;DHT22;28715;51.988;6.020;2023-08-31T02:18:04;14.10;99.80
43099;DHT22;28715;51.988;6.020;2023-08-31T02:20:30;14.10;99.80
43099;DHT22;28715;51.988;6.020;2023-08-31T02:22:56;14.20;99.80
43099;DHT22;28715;51.988;6.020;2023-08-31T02:25:21;14.10;99.80
43099;DHT22;28715;51.988;6.020;2023-08-31T02:27:47;14.20;99.90
43099;DHT22;28715;51.988;6.020;2023-08-31T02:30:12;14.20;99.90
43099;DHT22;28715;51.988;6.020;2023-08-31T02:32:38;14.20;99.90
43099;DHT22;28715;51.988;6.020;2023-08-31T02:35:04;14.30;99.90
43099;DHT22;28715;51.988;6.020;2023-08-31T02:37:29;14.30;99.90
43099;DHT22;28715;51.988;6.020;2023-08-31T02:39:55;14.30;99.90
43099;DHT22;28715;51.988;6.020;2023-08-31T02:42:20;14.30;99.90
43099;DHT22;28715;51.988;6.020;2023-08-31T02:44:46;14.40;99.90
43099;DHT22;28715;51.988;6.020;2023-08-31T02:47:11;14.40;99.90
43099;DHT22;28715;51.988;6.020;2023-08-31T02:49:37;14.40;99.90
43099;DHT22;28715;51.988;6.020;2023-08-31T02:52:02;14.40;99.90
43099;DHT22;28715;51.988;6.020;2023-08-31T02:54:28;14.50;99.90
43099;DHT22;28715;51.988;6.020;2023-08-31T02:56:53;14.50;99.90
43099;DHT22;28715;51.988;6.020;2023-08-31T02:59:19;14.50;99.90
43099;DHT22;28715;51.988;6.020;2023-08-31T03:01:44;14.60;99.90
43099;DHT22;28715;51.988;6.020;2023-08-31T03:04:12;14.60;99.90
43099;DHT22;28715;51.988;6.020;2023-08-31T03:06:37;14.60;99.90
43099;DHT22;28715;51.988;6.020;2023-08-31T03:09:03;14.60;99.90
43099;DHT22;28715;51.988;6.020;2023-08-31T03:11:29;14.60;99.90
43099;DHT22;28715;51.988;6.020;2023-08-31T03:13:55;14.60;99.90
43099;DHT22;28715;51.988;6.020;2023-08-31T03:16:21;14.60;99.90
43099;DHT22;28715;51.988;6.020;2023-08-31T03:18:46;14.70;99.90
43099;DHT22;28715;51.988;6.020;2023-08-31T03:21:12;14.70;99.90
43099;DHT22;28715;51.988;6.020;2023-08-31T03:23:37;14.70;99.90
43099;DHT22;28715;51.988;6.020;2023-08-31T03:26:06;14.70;99.90
43099;DHT22;28715;51.988;6.020;2023-08-31T03:28:32;14.80;99.90
43099;DHT22;28715;51.988;6.020;2023-08-31T03:30:57;14.70;99.90
43099;DHT22;28715;51.988;6.020;2023-08-31T03:33:23;14.80;99.90
43099;DHT22;28715;51.988;6.020;2023-08-31T03:35:48;14.80;99.90
43099;DHT22;28715;51.988;6.020;2023-08-31T03:38:14;14.80;99.90
43099;DHT22;28715;51.988;6.020;2023-08-31T03:40:39;14.80;99.90
43099;DHT22;28715;51.988;6.020;2023-08-31T03:43:05;14.80;99.80
43099;DHT22;28715;51.988;6.020;2023-08-31T03:45:30;14.80;99.90
43099;DHT22;28715;51.988;6.020;2023-08-31T03:47:55;14.80;99.90
43099;DHT22;28715;51.988;6.020;2023-08-31T03:50:21;14.80;99.90
43099;DHT22;28715;51.988;6.020;2023-08-31T03:52:46;14.80;99.90
43099;DHT22;28715;51.988;6.020;2023-08-31T03:55:12;14.80;99.90
43099;DHT22;28715;51.988;6.020;2023-08-31T03:57:37;14.80;99.90
43099;DHT22;28715;51.988;6.020;2023-08-31T04:00:04;14.80;99.90
43099;DHT22;28715;51.988;6.020;2023-08-31T04:02:38;14.70;99.80
43099;DHT22;28715;51.988;6.020;2023-08-31T04:05:03;14.80;99.80
43099;DHT22;28715;51.988;6.020;2023-08-31T04:07:31;14.70;99.90
43099;DHT22;28715;51.988;6.020;2023-08-31T04:09:57;14.70;99.90
43099;DHT22;28715;51.988;6.020;2023-08-31T04:12:22;14.70;99.90
43099;DHT22;28715;51.988;6.020;2023-08-31T04:14:48;14.70;99.90
43099;DHT22;28715;51.988;6.020;2023-08-31T04:17:13;14.70;99.90
43099;DHT22;28715;51.988;6.020;2023-08-31T04:19:38;14.70;99.90
43099;DHT22;28715;51.988;6.020;2023-08-31T04:22:04;14.70;99.90
43099;DHT22;28715;51.988;6.020;2023-08-31T04:24:30;14.70;99.90
43099;DHT22;28715;51.988;6.020;2023-08-31T04:26:55;14.70;99.90
43099;DHT22;28715;51.988;6.020;2023-08-31T04:29:21;14.80;99.90
43099;DHT22;28715;51.988;6.020;2023-08-31T04:31:46;14.80;99.90
43099;DHT22;28715;51.988;6.020;2023-08-31T04:34:12;14.80;99.90
43099;DHT22;28715;51.988;6.020;2023-08-31T04:36:37;14.80;99.90
43099;DHT22;28715;51.988;6.020;2023-08-31T04:39:03;14.80;99.90
43099;DHT22;28715;51.988;6.020;2023-08-31T04:41:30;14.80;99.90
43099;DHT22;28715;51.988;6.020;2023-08-31T04:43:55;14.80;99.90
43099;DHT22;28715;51.988;6.020;2023-08-31T04:46:21;14.80;99.90
43099;DHT22;28715;51.988;6.020;2023-08-31T04:48:46;14.80;99.90
43099;DHT22;28715;51.988;6.020;2023-08-31T04:51:31;14.80;99.90
43099;DHT22;28715;51.988;6.020;2023-08-31T04:53:58;14.80;99.90
43099;DHT22;28715;51.988;6.020;2023-08-31T04:56:23;14.80;99.90
43099;DHT22;28715;51.988;6.020;2023-08-31T04:58:49;14.80;99.90
43099;DHT22;28715;51.988;6.020;2023-08-31T05:01:14;14.70;99.90
43099;DHT22;28715;51.988;6.020;2023-08-31T05:03:41;14.80;99.90
43099;DHT22;28715;51.988;6.020;2023-08-31T05:06:07;14.80;99.90
43099;DHT22;28715;51.988;6.020;2023-08-31T05:08:33;14.80;99.90
43099;DHT22;28715;51.988;6.020;2023-08-31T05:10:59;14.80;99.90
43099;DHT22;28715;51.988;6.020;2023-08-31T05:13:24;14.80;99.90
43099;DHT22;28715;51.988;6.020;2023-08-31T05:15:50;14.80;99.90
43099;DHT22;28715;51.988;6.020;2023-08-31T05:18:15;14.80;99.90
43099;DHT22;28715;51.988;6.020;2023-08-31T05:20:44;14.80;99.90
43099;DHT22;28715;51.988;6.020;2023-08-31T05:23:09;14.80;99.90
43099;DHT22;28715;51.988;6.020;2023-08-31T05:25:35;14.80;99.90
43099;DHT22;28715;51.988;6.020;2023-08-31T05:28:00;14.90;99.90
43099;DHT22;28715;51.988;6.020;2023-08-31T05:30:26;14.90;99.90
43099;DHT22;28715;51.988;6.020;2023-08-31T05:32:52;14.90;99.90
43099;DHT22;28715;51.988;6.020;2023-08-31T05:35:17;14.90;99.90
43099;DHT22;28715;51.988;6.020;2023-08-31T05:37:43;14.90;99.90
43099;DHT22;28715;51.988;6.020;2023-08-31T05:40:08;14.90;99.90
43099;DHT22;28715;51.988;6.020;2023-08-31T05:42:36;14.90;99.90
43099;DHT22;28715;51.988;6.020;2023-08-31T05:45:01;14.90;99.90
43099;DHT22;28715;51.988;6.020;2023-08-31T05:47:27;14.90;99.90
43099;DHT22;28715;51.988;6.020;2023-08-31T05:49:52;14.90;99.90
43099;DHT22;28715;51.988;6.020;2023-08-31T05:52:18;14.90;99.90
43099;DHT22;28715;51.988;6.020;2023-08-31T05:54:43;14.90;99.90
43099;DHT22;28715;51.988;6.020;2023-08-31T05:57:09;14.90;99.90
43099;DHT22;28715;51.988;6.020;2023-08-31T05:59:34;14.90;99.90
43099;DHT22;28715;51.988;6.020;2023-08-31T06:02:00;14.90;99.90
43099;DHT22;28715;51.988;6.020;2023-08-31T06:04:29;14.90;99.90
43099;DHT22;28715;51.988;6.020;2023-08-31T06:06:56;14.90;99.90
43099;DHT22;28715;51.988;6.020;2023-08-31T06:09:21;14.90;99.90
43099;DHT22;28715;51.988;6.020;2023-08-31T06:11:49;14.90;99.90
43099;DHT22;28715;51.988;6.020;2023-08-31T06:14:15;14.90;99.90
43099;DHT22;28715;51.988;6.020;2023-08-31T06:16:40;15.00;99.90
43099;DHT22;28715;51.988;6.020;2023-08-31T06:19:06;15.00;99.90
43099;DHT22;28715;51.988;6.020;2023-08-31T06:21:31;15.00;99.90
43099;DHT22;28715;51.988;6.020;2023-08-31T06:23:57;15.00;99.90
43099;DHT22;28715;51.988;6.020;2023-08-31T06:26:22;15.10;99.90
43099;DHT22;28715;51.988;6.020;2023-08-31T06:28:48;15.10;99.90
43099;DHT22;28715;51.988;6.020;2023-08-31T06:31:13;15.00;99.90
43099;DHT22;28715;51.988;6.020;2023-08-31T06:33:39;15.10;99.90
43099;DHT22;28715;51.988;6.020;2023-08-31T06:36:04;15.20;99.90
43099;DHT22;28715;51.988;6.020;2023-08-31T06:38:30;15.20;99.90
43099;DHT22;28715;51.988;6.020;2023-08-31T06:40:58;15.30;99.90
43099;DHT22;28715;51.988;6.020;2023-08-31T06:43:24;15.30;99.90
43099;DHT22;28715;51.988;6.020;2023-08-31T06:45:52;15.30;99.90
43099;DHT22;28715;51.988;6.020;2023-08-31T06:48:18;15.30;99.90
43099;DHT22;28715;51.988;6.020;2023-08-31T06:50:43;15.40;99.90
43099;DHT22;28715;51.988;6.020;2023-08-31T06:53:08;15.50;99.90
43099;DHT22;28715;51.988;6.020;2023-08-31T06:55:34;15.60;99.90
43099;DHT22;28715;51.988;6.020;2023-08-31T06:58:02;15.70;99.90
43099;DHT22;28715;51.988;6.020;2023-08-31T07:00:32;15.70;99.90
43099;DHT22;28715;51.988;6.020;2023-08-31T07:03:05;15.70;99.90
43099;DHT22;28715;51.988;6.020;2023-08-31T07:05:42;15.70;99.90
43099;DHT22;28715;51.988;6.020;2023-08-31T07:08:08;15.70;99.90
43099;DHT22;28715;51.988;6.020;2023-08-31T07:10:34;15.70;99.90
43099;DHT22;28715;51.988;6.020;2023-08-31T07:13:02;15.70;99.90
43099;DHT22;28715;51.988;6.020;2023-08-31T07:15:27;15.70;99.90
43099;DHT22;28715;51.988;6.020;2023-08-31T07:17:53;15.70;99.90
43099;DHT22;28715;51.988;6.020;2023-08-31T07:20:18;15.70;99.90
43099;DHT22;28715;51.988;6.020;2023-08-31T07:22:44;15.70;99.90
43099;DHT22;28715;51.988;6.020;2023-08-31T07:25:09;15.80;99.90
43099;DHT22;28715;51.988;6.020;2023-08-31T07:27:35;15.80;99.90
43099;DHT22;28715;51.988;6.020;2023-08-31T07:30:00;15.90;99.90
43099;DHT22;28715;51.988;6.020;2023-08-31T07:32:26;15.90;99.90
43099;DHT22;28715;51.988;6.020;2023-08-31T07:34:51;15.90;99.90
43099;DHT22;28715;51.988;6.020;2023-08-31T07:37:17;15.90;99.90
43099;DHT22;28715;51.988;6.020;2023-08-31T07:39:42;16.00;99.90
43099;DHT22;28715;51.988;6.020;2023-08-31T07:42:08;16.10;99.90
43099;DHT22;28715;51.988;6.020;2023-08-31T07:44:33;16.10;99.90
43099;DHT22;28715;51.988;6.020;2023-08-31T07:46:59;16.10;99.90
43099;DHT22;28715;51.988;6.020;2023-08-31T07:49:24;16.10;99.90
43099;DHT22;28715;51.988;6.020;2023-08-31T07:51:50;16.00;99.90
43099;DHT22;28715;51.988;6.020;2023-08-31T07:54:22;16.10;99.90
43099;DHT22;28715;51.988;6.020;2023-08-31T07:56:48;16.20;99.90
43099;DHT22;28715;51.988;6.020;2023-08-31T07:59:13;16.70;99.90
43099;DHT22;28715;51.988;6.020;2023-08-31T08:01:39;17.10;99.90
43099;DHT22;28715;51.988;6.020;2023-08-31T08:04:06;17.30;99.60
43099;DHT22;28715;51.988;6.020;2023-08-31T08:06:31;17.40;99.20
43099;DHT22;28715;51.988;6.020;2023-08-31T08:08:57;17.30;98.50
43099;DHT22;28715;51.988;6.020;2023-08-31T08:11:22;17.20;98.50
43099;DHT22;28715;51.988;6.020;2023-08-31T08:13:48;17.10;98.70
43099;DHT22;28715;51.988;6.020;2023-08-31T08:16:13;17.10;98.80
43099;DHT22;28715;51.988;6.020;2023-08-31T08:18:44;17.10;99.00
43099;DHT22;28715;51.988;6.020;2023-08-31T08:21:10;17.00;98.80
43099;DHT22;28715;51.988;6.020;2023-08-31T08:23:35;17.00;98.90
43099;DHT22;28715;51.988;6.020;2023-08-31T08:26:06;16.90;99.10
43099;DHT22;28715;51.988;6.020;2023-08-31T08:28:32;17.00;99.10
43099;DHT22;28715;51.988;6.020;2023-08-31T08:31:02;17.00;99.20
43099;DHT22;28715;51.988;6.020;2023-08-31T08:33:30;17.00;99.50
43099;DHT22;28715;51.988;6.020;2023-08-31T08:35:56;17.00;99.40
43099;DHT22;28715;51.988;6.020;2023-08-31T08:38:22;17.00;99.20
43099;DHT22;28715;51.988;6.020;2023-08-31T08:40:47;17.10;99.50
43099;DHT22;28715;51.988;6.020;2023-08-31T08:43:16;17.10;99.60
43099;DHT22;28715;51.988;6.020;2023-08-31T08:45:43;17.20;99.70
43099;DHT22;28715;51.988;6.020;2023-08-31T08:48:12;17.30;99.50
43099;DHT22;28715;51.988;6.020;2023-08-31T08:50:38;17.40;99.90
43099;DHT22;28715;51.988;6.020;2023-08-31T08:53:05;17.80;99.90
43099;DHT22;28715;51.988;6.020;2023-08-31T08:55:33;18.10;99.50
43099;DHT22;28715;51.988;6.020;2023-08-31T08:57:59;18.20;98.90
43099;DHT22;28715;51.988;6.020;2023-08-31T09:00:25;18.30;98.70
43099;DHT22;28715;51.988;6.020;2023-08-31T09:03:11;18.30;98.30
43099;DHT22;28715;51.988;6.020;2023-08-31T09:05:50;18.30;98.20
43099;DHT22;28715;51.988;6.020;2023-08-31T09:08:24;18.30;98.10
43099;DHT22;28715;51.988;6.020;2023-08-31T09:10:55;18.30;98.40
43099;DHT22;28715;51.988;6.020;2023-08-31T09:13:25;18.30;98.50
43099;DHT22;28715;51.988;6.020;2023-08-31T09:15:54;18.50;98.50
43099;DHT22;28715;51.988;6.020;2023-08-31T09:20:55;18.70;97.90
43099;DHT22;28715;51.988;6.020;2023-08-31T09:23:47;18.90;98.00
43099;DHT22;28715;51.988;6.020;2023-08-31T09:29:20;19.30;97.30
43099;DHT22;28715;51.988;6.020;2023-08-31T09:31:46;19.70;97.70
43099;DHT22;28715;51.988;6.020;2023-08-31T09:34:12;20.20;97.00
43099;DHT22;28715;51.988;6.020;2023-08-31T09:36:38;20.60;95.70
43099;DHT22;28715;51.988;6.020;2023-08-31T09:39:16;20.90;94.70
43099;DHT22;28715;51.988;6.020;2023-08-31T09:41:54;21.30;94.10
43099;DHT22;28715;51.988;6.020;2023-08-31T09:44:22;21.50;93.70
43099;DHT22;28715;51.988;6.020;2023-08-31T09:46:57;21.90;93.50
43099;DHT22;28715;51.988;6.020;2023-08-31T09:49:50;22.00;92.20
43099;DHT22;28715;51.988;6.020;2023-08-31T09:55:45;22.10;91.80
43099;DHT22;28715;51.988;6.020;2023-08-31T09:58:12;22.10;92.00
43099;DHT22;28715;51.988;6.020;2023-08-31T10:00:37;22.20;91.60
43099;DHT22;28715;51.988;6.020;2023-08-31T10:03:04;22.40;91.90
43099;DHT22;28715;51.988;6.020;2023-08-31T10:05:30;22.50;90.50
43099;DHT22;28715;51.988;6.020;2023-08-31T10:07:57;22.50;89.80
43099;DHT22;28715;51.988;6.020;2023-08-31T10:10:22;22.30;89.50
43099;DHT22;28715;51.988;6.020;2023-08-31T10:12:49;22.20;90.10
43099;DHT22;28715;51.988;6.020;2023-08-31T10:15:15;22.30;89.60
43099;DHT22;28715;51.988;6.020;2023-08-31T10:17:41;22.10;89.20
43099;DHT22;28715;51.988;6.020;2023-08-31T10:20:08;22.00;89.00
43099;DHT22;28715;51.988;6.020;2023-08-31T10:22:34;21.80;90.10
43099;DHT22;28715;51.988;6.020;2023-08-31T10:25:00;21.50;90.80
43099;DHT22;28715;51.988;6.020;2023-08-31T10:27:25;21.30;91.30
43099;DHT22;28715;51.988;6.020;2023-08-31T10:29:52;21.10;91.90
43099;DHT22;28715;51.988;6.020;2023-08-31T10:32:17;20.80;92.00
43099;DHT22;28715;51.988;6.020;2023-08-31T10:35:08;20.50;92.70
43099;DHT22;28715;51.988;6.020;2023-08-31T10:37:34;20.30;93.50
43099;DHT22;28715;51.988;6.020;2023-08-31T10:40:06;20.10;93.60
43099;DHT22;28715;51.988;6.020;2023-08-31T10:42:32;20.00;94.10
43099;DHT22;28715;51.988;6.020;2023-08-31T10:45:05;19.80;94.60
43099;DHT22;28715;51.988;6.020;2023-08-31T10:47:37;19.70;94.90
43099;DHT22;28715;51.988;6.020;2023-08-31T10:50:17;19.60;95.00
43099;DHT22;28715;51.988;6.020;2023-08-31T10:52:45;19.50;95.20
43099;DHT22;28715;51.988;6.020;2023-08-31T10:55:14;19.60;96.70
43099;DHT22;28715;51.988;6.020;2023-08-31T10:57:40;19.80;96.90
43099;DHT22;28715;51.988;6.020;2023-08-31T11:00:06;20.10;97.60
43099;DHT22;28715;51.988;6.020;2023-08-31T11:05:08;20.60;96.30
43099;DHT22;28715;51.988;6.020;2023-08-31T11:07:34;20.80;93.80
43099;DHT22;28715;51.988;6.020;2023-08-31T11:10:34;20.90;92.40
43099;DHT22;28715;51.988;6.020;2023-08-31T11:12:53;20.90;92.00
43099;DHT22;28715;51.988;6.020;2023-08-31T11:15:23;21.10;91.90
43099;DHT22;28715;51.988;6.020;2023-08-31T11:17:52;21.20;91.60
43099;DHT22;28715;51.988;6.020;2023-08-31T11:20:18;21.40;90.60
43099;DHT22;28715;51.988;6.020;2023-08-31T11:22:46;21.40;89.70
43099;DHT22;28715;51.988;6.020;2023-08-31T11:25:12;21.60;90.40
43099;DHT22;28715;51.988;6.020;2023-08-31T11:27:38;21.70;90.10
43099;DHT22;28715;51.988;6.020;2023-08-31T11:30:14;21.80;89.00
43099;DHT22;28715;51.988;6.020;2023-08-31T11:32:50;21.90;88.80
43099;DHT22;28715;51.988;6.020;2023-08-31T11:35:17;22.00;88.10
43099;DHT22;28715;51.988;6.020;2023-08-31T11:37:43;22.00;89.60
43099;DHT22;28715;51.988;6.020;2023-08-31T11:40:08;22.10;87.50
43099;DHT22;28715;51.988;6.020;2023-08-31T11:42:34;22.10;88.10
43099;DHT22;28715;51.988;6.020;2023-08-31T11:45:00;22.20;88.90
43099;DHT22;28715;51.988;6.020;2023-08-31T11:47:25;22.30;87.90
43099;DHT22;28715;51.988;6.020;2023-08-31T11:49:51;22.40;87.10
43099;DHT22;28715;51.988;6.020;2023-08-31T11:52:17;22.50;88.40
43099;DHT22;28715;51.988;6.020;2023-08-31T11:54:43;22.60;87.60
43099;DHT22;28715;51.988;6.020;2023-08-31T11:57:09;22.70;87.30
43099;DHT22;28715;51.988;6.020;2023-08-31T11:59:38;23.00;88.30
43099;DHT22;28715;51.988;6.020;2023-08-31T12:02:07;23.10;81.90
43099;DHT22;28715;51.988;6.020;2023-08-31T12:04:33;23.00;80.70
43099;DHT22;28715;51.988;6.020;2023-08-31T12:07:06;23.00;79.70
43099;DHT22;28715;51.988;6.020;2023-08-31T12:09:31;23.00;80.60
43099;DHT22;28715;51.988;6.020;2023-08-31T12:11:57;23.10;81.00
43099;DHT22;28715;51.988;6.020;2023-08-31T12:14:26;23.10;79.10
43099;DHT22;28715;51.988;6.020;2023-08-31T12:16:52;23.20;76.80
43099;DHT22;28715;51.988;6.020;2023-08-31T12:19:18;23.10;78.60
43099;DHT22;28715;51.988;6.020;2023-08-31T12:21:44;23.20;83.20
43099;DHT22;28715;51.988;6.020;2023-08-31T12:24:10;23.30;84.60
43099;DHT22;28715;51.988;6.020;2023-08-31T12:26:36;23.50;81.90
43099;DHT22;28715;51.988;6.020;2023-08-31T12:29:02;23.60;82.00
43099;DHT22;28715;51.988;6.020;2023-08-31T12:31:30;23.70;83.10
43099;DHT22;28715;51.988;6.020;2023-08-31T12:33:55;23.80;83.40
43099;DHT22;28715;51.988;6.020;2023-08-31T12:36:21;23.80;82.00
43099;DHT22;28715;51.988;6.020;2023-08-31T12:38:47;23.80;82.60
43099;DHT22;28715;51.988;6.020;2023-08-31T12:41:12;23.80;80.50
43099;DHT22;28715;51.988;6.020;2023-08-31T12:43:38;23.80;80.70
43099;DHT22;28715;51.988;6.020;2023-08-31T12:46:04;23.80;80.90
43099;DHT22;28715;51.988;6.020;2023-08-31T12:48:34;23.80;82.20
43099;DHT22;28715;51.988;6.020;2023-08-31T12:51:00;23.70;76.10
43099;DHT22;28715;51.988;6.020;2023-08-31T12:53:25;23.60;75.50
43099;DHT22;28715;51.988;6.020;2023-08-31T12:55:52;23.50;74.40
43099;DHT22;28715;51.988;6.020;2023-08-31T12:58:17;23.50;76.90
43099;DHT22;28715;51.988;6.020;2023-08-31T13:00:43;23.60;77.30
43099;DHT22;28715;51.988;6.020;2023-08-31T13:03:09;23.60;75.50
43099;DHT22;28715;51.988;6.020;2023-08-31T13:05:35;23.60;74.20
43099;DHT22;28715;51.988;6.020;2023-08-31T13:08:00;23.60;76.90
43099;DHT22;28715;51.988;6.020;2023-08-31T13:10:26;23.60;76.00
43099;DHT22;28715;51.988;6.020;2023-08-31T13:12:51;23.60;74.40
43099;DHT22;28715;51.988;6.020;2023-08-31T13:15:17;23.50;73.60
43099;DHT22;28715;51.988;6.020;2023-08-31T13:17:42;23.50;74.50
43099;DHT22;28715;51.988;6.020;2023-08-31T13:20:08;23.40;74.30
43099;DHT22;28715;51.988;6.020;2023-08-31T13:22:33;23.40;73.80
43099;DHT22;28715;51.988;6.020;2023-08-31T13:24:59;23.50;75.80
43099;DHT22;28715;51.988;6.020;2023-08-31T13:27:24;23.50;74.90
43099;DHT22;28715;51.988;6.020;2023-08-31T13:29:50;23.40;73.60
43099;DHT22;28715;51.988;6.020;2023-08-31T13:32:16;23.40;72.20
43099;DHT22;28715;51.988;6.020;2023-08-31T13:34:41;23.30;72.00
43099;DHT22;28715;51.988;6.020;2023-08-31T13:37:07;23.20;71.20
43099;DHT22;28715;51.988;6.020;2023-08-31T13:39:33;23.00;72.90
43099;DHT22;28715;51.988;6.020;2023-08-31T13:41:59;22.90;73.30
43099;DHT22;28715;51.988;6.020;2023-08-31T13:44:27;22.80;73.00
43099;DHT22;28715;51.988;6.020;2023-08-31T13:46:53;22.70;73.60
43099;DHT22;28715;51.988;6.020;2023-08-31T13:49:18;22.80;74.00
43099;DHT22;28715;51.988;6.020;2023-08-31T13:51:44;22.80;75.00
43099;DHT22;28715;51.988;6.020;2023-08-31T13:54:10;22.90;75.40
43099;DHT22;28715;51.988;6.020;2023-08-31T13:56:36;23.00;74.30
43099;DHT22;28715;51.988;6.020;2023-08-31T13:59:02;23.10;74.50
43099;DHT22;28715;51.988;6.020;2023-08-31T14:01:27;23.20;74.90
43099;DHT22;28715;51.988;6.020;2023-08-31T14:03:53;23.30;75.50
43099;DHT22;28715;51.988;6.020;2023-08-31T14:06:18;23.30;72.80
43099;DHT22;28715;51.988;6.020;2023-08-31T14:08:44;23.20;72.30
43099;DHT22;28715;51.988;6.020;2023-08-31T14:11:10;23.00;73.00
43099;DHT22;28715;51.988;6.020;2023-08-31T14:13:35;22.90;73.90
43099;DHT22;28715;51.988;6.020;2023-08-31T14:16:03;22.80;74.90
43099;DHT22;28715;51.988;6.020;2023-08-31T14:18:28;22.90;73.80
43099;DHT22;28715;51.988;6.020;2023-08-31T14:20:55;23.00;74.10
43099;DHT22;28715;51.988;6.020;2023-08-31T14:23:21;23.00;73.90
43099;DHT22;28715;51.988;6.020;2023-08-31T14:25:47;23.00;73.60
43099;DHT22;28715;51.988;6.020;2023-08-31T14:28:12;23.00;74.70
43099;DHT22;28715;51.988;6.020;2023-08-31T14:30:38;22.90;74.40
43099;DHT22;28715;51.988;6.020;2023-08-31T14:33:04;23.00;75.00
43099;DHT22;28715;51.988;6.020;2023-08-31T14:35:31;23.00;74.00
43099;DHT22;28715;51.988;6.020;2023-08-31T14:37:56;23.10;74.10
43099;DHT22;28715;51.988;6.020;2023-08-31T14:40:22;23.10;74.90
43099;DHT22;28715;51.988;6.020;2023-08-31T14:42:48;23.10;75.10
43099;DHT22;28715;51.988;6.020;2023-08-31T14:45:13;23.00;74.00
43099;DHT22;28715;51.988;6.020;2023-08-31T14:47:38;22.90;74.30
43099;DHT22;28715;51.988;6.020;2023-08-31T14:50:04;22.70;74.30
43099;DHT22;28715;51.988;6.020;2023-08-31T14:52:30;22.60;75.40
43099;DHT22;28715;51.988;6.020;2023-08-31T14:54:55;22.70;75.90
43099;DHT22;28715;51.988;6.020;2023-08-31T14:57:21;22.70;76.60
43099;DHT22;28715;51.988;6.020;2023-08-31T14:59:46;22.60;75.40
43099;DHT22;28715;51.988;6.020;2023-08-31T15:02:12;22.60;76.80
43099;DHT22;28715;51.988;6.020;2023-08-31T15:04:39;22.60;75.70
43099;DHT22;28715;51.988;6.020;2023-08-31T15:07:05;22.60;77.10
43099;DHT22;28715;51.988;6.020;2023-08-31T15:09:31;22.60;77.50
43099;DHT22;28715;51.988;6.020;2023-08-31T15:11:57;22.60;76.10
43099;DHT22;28715;51.988;6.020;2023-08-31T15:14:22;22.50;75.80
43099;DHT22;28715;51.988;6.020;2023-08-31T15:16:48;22.40;75.70
43099;DHT22;28715;51.988;6.020;2023-08-31T15:19:13;22.30;76.70
43099;DHT22;28715;51.988;6.020;2023-08-31T15:21:39;22.20;76.60
43099;DHT22;28715;51.988;6.020;2023-08-31T15:24:05;22.20;77.80
43099;DHT22;28715;51.988;6.020;2023-08-31T15:26:30;22.20;77.60
43099;DHT22;28715;51.988;6.020;2023-08-31T15:28:56;22.20;77.60
43099;DHT22;28715;51.988;6.020;2023-08-31T15:31:21;22.10;77.80
43099;DHT22;28715;51.988;6.020;2023-08-31T15:33:47;22.10;76.40
43099;DHT22;28715;51.988;6.020;2023-08-31T15:36:13;22.00;77.20
43099;DHT22;28715;51.988;6.020;2023-08-31T15:38:38;21.90;77.60
43099;DHT22;28715;51.988;6.020;2023-08-31T15:41:04;21.90;77.30
43099;DHT22;28715;51.988;6.020;2023-08-31T15:43:30;21.90;78.00